createdAt,value
2023-01-03T00:01:55.081Z,9.13
2023-01-03T00:04:23.160Z,9.13
2023-01-03T00:06:52.393Z,9.19
2023-01-03T00:09:23.632Z,9.14
2023-01-03T00:12:11.151Z,9.14
2023-01-03T00:14:41.655Z,9.17
2023-01-03T00:17:10.409Z,9.10
2023-01-03T00:19:43.797Z,9.07
2023-01-03T00:22:12.824Z,9.09
2023-01-03T00:24:40.834Z,9.08
2023-01-03T00:27:08.718Z,9.12
2023-01-03T00:29:37.078Z,9.13
2023-01-03T00:32:04.596Z,9.02
2023-01-03T00:34:32.254Z,8.94
2023-01-03T00:36:59.943Z,8.89
2023-01-03T00:39:27.913Z,8.91
2023-01-03T00:41:56.749Z,8.92
2023-01-03T00:44:24.360Z,8.96
2023-01-03T00:46:51.645Z,8.97
2023-01-03T00:49:19.501Z,8.92
2023-01-03T00:51:47.308Z,8.94
2023-01-03T00:54:15.993Z,8.92
2023-01-03T00:56:46.885Z,8.79
2023-01-03T00:59:17.322Z,8.84
2023-01-03T01:01:53.468Z,8.62
2023-01-03T01:04:23.911Z,8.79
2023-01-03T01:06:56.386Z,8.75
2023-01-03T01:09:26.985Z,8.81
2023-01-03T01:11:55.743Z,8.86
2023-01-03T01:14:25.413Z,8.99
2023-01-03T01:17:00.263Z,9.07
2023-01-03T01:19:36.263Z,9.27
2023-01-03T01:22:03.909Z,9.24
2023-01-03T01:24:32.214Z,9.29
2023-01-03T01:26:59.695Z,9.34
2023-01-03T01:29:27.206Z,9.27
2023-01-03T01:31:55.463Z,9.20
2023-01-03T01:34:23.968Z,9.18
2023-01-03T01:36:51.314Z,9.26
2023-01-03T01:39:25.600Z,9.24
2023-01-03T01:42:20.211Z,9.20
2023-01-03T01:44:52.361Z,9.08
2023-01-03T01:47:29.061Z,9.08
2023-01-03T01:50:24.402Z,9.14
2023-01-03T01:53:03.402Z,9.19
2023-01-03T01:55:40.824Z,9.20
2023-01-03T01:58:09.147Z,9.21
2023-01-03T02:00:37.955Z,9.25
2023-01-03T02:03:06.150Z,9.22
2023-01-03T02:05:36.067Z,9.28
2023-01-03T02:08:03.876Z,9.27
2023-01-03T02:10:50.967Z,9.01
2023-01-03T02:13:37.943Z,8.81
2023-01-03T02:16:50.679Z,8.50
2023-01-03T02:19:55.070Z,8.37
2023-01-03T02:22:34.802Z,8.22
2023-01-03T02:25:35.050Z,8.00
2023-01-03T02:28:02.362Z,7.68
2023-01-03T02:30:41.101Z,7.43
2023-01-03T02:33:18.712Z,7.30
2023-01-03T02:36:21.051Z,7.35
2023-01-03T02:39:05.670Z,7.24
2023-01-03T02:42:23.959Z,7.18
2023-01-03T02:45:04.544Z,7.25
2023-01-03T02:47:44.798Z,7.40
2023-01-03T02:50:13.822Z,7.49
2023-01-03T02:52:42.626Z,7.65
2023-01-03T02:55:19.262Z,7.74
2023-01-03T02:57:52.461Z,7.84
2023-01-03T03:00:24.892Z,7.98
2023-01-03T03:02:58.624Z,7.96
2023-01-03T03:05:31.773Z,8.09
2023-01-03T03:08:00.655Z,8.12
2023-01-03T03:10:47.202Z,8.26
2023-01-03T03:13:30.680Z,8.30
2023-01-03T03:16:08.420Z,8.30
2023-01-03T03:18:46.007Z,8.42
2023-01-03T03:21:37.299Z,8.57
2023-01-03T03:24:48.100Z,8.50
2023-01-03T03:27:39.496Z,8.53
2023-01-03T03:30:14.448Z,8.52
2023-01-03T03:32:45.044Z,8.50
2023-01-03T03:35:16.688Z,8.49
2023-01-03T03:37:48.486Z,8.49
2023-01-03T03:40:34.426Z,8.43
2023-01-03T03:43:33.770Z,8.38
2023-01-03T03:46:10.287Z,8.18
2023-01-03T03:49:06.224Z,8.23
2023-01-03T03:51:37.054Z,8.11
2023-01-03T03:54:12.424Z,8.09
2023-01-03T03:56:43.081Z,8.03
2023-01-03T03:59:32.330Z,8.03
2023-01-03T04:02:03.652Z,7.96
2023-01-03T04:04:42.405Z,7.97
2023-01-03T04:07:09.833Z,7.98
2023-01-03T04:09:37.299Z,7.99
2023-01-03T04:12:04.646Z,8.00
2023-01-03T04:14:32.207Z,8.01
2023-01-03T04:16:59.389Z,8.04
2023-01-03T04:19:27.951Z,7.90
2023-01-03T04:21:55.041Z,7.95
2023-01-03T04:24:22.707Z,7.93
2023-01-03T04:26:49.936Z,8.00
2023-01-03T04:29:17.358Z,7.97
2023-01-03T04:31:44.503Z,7.97
2023-01-03T04:34:12.036Z,7.89
2023-01-03T04:36:39.813Z,7.96
2023-01-03T04:39:07.335Z,7.90
2023-01-03T04:41:34.536Z,7.92
2023-01-03T04:44:02.287Z,7.96
2023-01-03T04:46:31.494Z,7.97
2023-01-03T04:48:59.164Z,8.01
2023-01-03T04:51:26.708Z,8.16
2023-01-03T04:53:55.437Z,8.21
2023-01-03T04:56:26.783Z,8.25
2023-01-03T04:58:54.599Z,8.35
2023-01-03T05:01:22.294Z,8.36
2023-01-03T05:03:50.514Z,8.31
2023-01-03T05:06:18.402Z,8.29
2023-01-03T05:08:48.684Z,8.37
2023-01-03T05:11:15.803Z,8.39
2023-01-03T05:13:43.574Z,8.36
2023-01-03T05:16:14.785Z,8.36
2023-01-03T05:18:42.624Z,8.38
2023-01-03T05:21:35.742Z,8.52
2023-01-03T05:24:22.386Z,8.49
2023-01-03T05:26:50.516Z,8.55
2023-01-03T05:29:21.519Z,8.55
2023-01-03T05:31:49.192Z,8.53
2023-01-03T05:34:16.953Z,8.55
2023-01-03T05:36:44.166Z,8.65
2023-01-03T05:39:11.921Z,8.67
2023-01-03T05:41:58.160Z,8.80
2023-01-03T05:44:30.912Z,8.79
2023-01-03T05:46:59.773Z,8.73
2023-01-03T05:49:27.834Z,8.77
2023-01-03T05:51:54.993Z,8.70
2023-01-03T05:54:22.519Z,8.68
2023-01-03T05:56:51.263Z,8.68
2023-01-03T05:59:20.028Z,8.63
2023-01-03T06:01:47.375Z,8.72
2023-01-03T06:04:17.106Z,8.74
2023-01-03T06:06:44.373Z,8.75
2023-01-03T06:09:12.774Z,8.87
2023-01-03T06:11:41.190Z,8.76
2023-01-03T06:14:09.065Z,8.76
2023-01-03T06:16:54.942Z,8.82
2023-01-03T06:19:24.926Z,8.80
2023-01-03T06:21:52.329Z,8.81
2023-01-03T06:24:20.092Z,8.75
2023-01-03T06:26:48.428Z,8.76
2023-01-03T06:29:15.937Z,8.79
2023-01-03T06:31:43.118Z,8.74
2023-01-03T06:34:10.672Z,8.76
2023-01-03T06:36:37.928Z,8.82
2023-01-03T06:39:05.309Z,8.74
2023-01-03T06:41:33.057Z,8.80
2023-01-03T06:44:00.991Z,9.02
2023-01-03T06:46:46.548Z,9.03
2023-01-03T06:49:36.227Z,9.15
2023-01-03T06:52:24.525Z,9.20
2023-01-03T06:54:54.044Z,9.27
2023-01-03T06:57:25.670Z,9.31
2023-01-03T06:59:55.427Z,9.41
2023-01-03T07:02:22.767Z,9.41
2023-01-03T07:04:50.419Z,9.49
2023-01-03T07:07:17.610Z,9.55
2023-01-03T07:09:45.125Z,9.60
2023-01-03T07:12:30.782Z,10.12
2023-01-03T07:14:58.998Z,11.49
2023-01-03T07:17:26.071Z,12.10
2023-01-03T07:19:53.456Z,13.33
2023-01-03T07:22:20.808Z,14.32
2023-01-03T07:24:48.573Z,15.05
2023-01-03T07:27:15.677Z,15.04
2023-01-03T07:29:44.103Z,15.36
2023-01-03T07:32:11.218Z,15.73
2023-01-03T07:34:38.644Z,15.74
2023-01-03T07:37:06.128Z,16.38
2023-01-03T07:39:33.580Z,16.16
2023-01-03T07:42:19.625Z,16.53
2023-01-03T07:44:47.272Z,16.60
2023-01-03T07:47:16.174Z,16.98
2023-01-03T07:49:44.996Z,16.46
2023-01-03T07:52:12.201Z,18.14
2023-01-03T07:54:39.687Z,18.03
2023-01-03T07:57:06.828Z,18.31
2023-01-03T07:59:34.542Z,18.10
2023-01-03T08:02:01.741Z,18.58
2023-01-03T08:04:29.750Z,18.76
2023-01-03T08:06:58.523Z,17.64
2023-01-03T08:09:44.933Z,18.01
2023-01-03T08:12:30.507Z,18.59
2023-01-03T08:14:57.944Z,19.26
2023-01-03T08:17:25.167Z,18.92
2023-01-03T08:19:52.639Z,18.92
2023-01-03T08:22:19.929Z,19.77
2023-01-03T08:24:47.696Z,20.52
2023-01-03T08:27:14.963Z,19.50
2023-01-03T08:29:45.057Z,19.30
2023-01-03T08:32:13.017Z,19.84
2023-01-03T08:34:45.497Z,21.37
2023-01-03T08:37:15.287Z,21.59
2023-01-03T08:39:52.002Z,20.82
2023-01-03T08:42:23.378Z,20.65
2023-01-03T08:44:56.726Z,20.57
2023-01-03T08:47:24.249Z,19.11
2023-01-03T08:49:51.904Z,20.49
2023-01-03T08:52:20.197Z,21.87
2023-01-03T08:54:47.698Z,21.29
2023-01-03T08:57:14.958Z,21.32
2023-01-03T08:59:42.417Z,20.52
2023-01-03T09:02:09.686Z,19.46
2023-01-03T09:04:37.440Z,20.80
2023-01-03T09:07:05.720Z,20.78
2023-01-03T09:09:33.421Z,20.84
2023-01-03T09:12:03.043Z,21.26
2023-01-03T09:14:31.791Z,21.85
2023-01-03T09:17:02.061Z,20.55
2023-01-03T09:19:32.328Z,19.94
2023-01-03T09:21:59.645Z,20.34
2023-01-03T09:24:30.964Z,19.17
2023-01-03T09:26:58.180Z,19.42
2023-01-03T09:29:26.658Z,20.32
2023-01-03T09:31:53.924Z,20.81
2023-01-03T09:34:21.364Z,20.70
2023-01-03T09:36:49.167Z,20.10
2023-01-03T09:39:16.558Z,20.34
2023-01-03T09:41:44.248Z,21.22
2023-01-03T09:44:11.963Z,21.44
2023-01-03T09:46:45.894Z,20.80
2023-01-03T09:53:16.155Z,22.09
2023-01-03T09:56:37.681Z,20.51
2023-01-03T09:59:34.840Z,21.22
2023-01-03T10:03:06.027Z,21.46
2023-01-03T10:05:54.087Z,20.36
2023-01-03T10:08:27.984Z,20.50
2023-01-03T10:11:23.667Z,20.04
2023-01-03T10:13:54.128Z,21.35
2023-01-03T10:16:31.061Z,20.76
2023-01-03T10:19:10.404Z,20.05
2023-01-03T10:22:06.307Z,20.00
2023-01-03T10:24:50.699Z,19.97
2023-01-03T10:27:24.033Z,20.63
2023-01-03T10:29:55.940Z,19.95
2023-01-03T10:32:45.027Z,20.92
2023-01-03T10:35:29.983Z,21.81
2023-01-03T10:37:58.575Z,20.79
2023-01-03T10:40:35.981Z,21.41
2023-01-03T10:43:26.684Z,21.82
2023-01-03T10:46:03.626Z,22.83
2023-01-03T10:49:25.374Z,20.83
2023-01-03T10:51:43.087Z,21.50
2023-01-03T10:54:21.296Z,21.21
2023-01-03T10:56:50.128Z,22.13
2023-01-03T10:59:23.347Z,20.51
2023-01-03T11:02:03.165Z,20.76
2023-01-03T11:04:32.061Z,21.56
2023-01-03T11:07:08.665Z,21.13
2023-01-03T11:09:51.191Z,21.32
2023-01-03T11:12:37.528Z,21.59
2023-01-03T11:15:16.207Z,22.49
2023-01-03T11:17:57.908Z,21.83
2023-01-03T11:20:38.254Z,19.65
2023-01-03T11:23:33.225Z,20.51
2023-01-03T11:26:19.269Z,22.13
2023-01-03T11:29:24.502Z,22.31
2023-01-03T11:31:58.518Z,19.98
2023-01-03T11:35:20.862Z,21.65
2023-01-03T11:37:54.053Z,22.99
2023-01-03T11:40:46.313Z,20.06
2023-01-03T11:43:16.558Z,19.35
2023-01-03T11:46:22.130Z,18.81
2023-01-03T11:49:08.391Z,19.74
2023-01-03T11:51:50.095Z,18.94
2023-01-03T11:54:52.929Z,18.94
2023-01-03T11:57:31.379Z,19.92
2023-01-03T12:00:22.576Z,20.99
2023-01-03T12:03:30.007Z,20.30
2023-01-03T12:06:30.997Z,21.06
2023-01-03T12:09:21.132Z,21.18
2023-01-03T12:12:02.881Z,20.56
2023-01-03T12:14:52.689Z,21.00
2023-01-03T12:17:28.760Z,21.11
2023-01-03T12:20:14.376Z,20.18
2023-01-03T12:22:53.603Z,20.51
2023-01-03T12:25:36.958Z,20.93
2023-01-03T12:28:10.378Z,20.17
2023-01-03T12:30:43.025Z,19.71
2023-01-03T12:33:46.692Z,20.42
2023-01-03T12:37:02.068Z,20.63
2023-01-03T12:39:35.560Z,19.81
2023-01-03T12:42:26.490Z,18.76
2023-01-03T12:45:24.130Z,18.83
2023-01-03T12:47:56.049Z,19.87
2023-01-03T12:50:40.500Z,19.23
2023-01-03T12:53:14.962Z,20.18
2023-01-03T12:56:06.806Z,19.50
2023-01-03T12:58:59.572Z,19.77
2023-01-03T13:01:47.587Z,20.30
2023-01-03T13:04:24.326Z,19.36
2023-01-03T13:07:02.769Z,19.02
2023-01-03T13:09:39.622Z,19.63
2023-01-03T13:12:21.460Z,19.40
2023-01-03T13:15:19.565Z,19.32
2023-01-03T13:21:57.490Z,18.21
2023-01-03T13:24:47.130Z,18.77
2023-01-03T13:27:17.285Z,19.31
2023-01-03T13:30:04.677Z,18.90
2023-01-03T13:32:50.177Z,18.76
2023-01-03T13:35:41.342Z,18.42
2023-01-03T13:38:25.447Z,18.70
2023-01-03T13:43:52.815Z,18.45
2023-01-03T13:46:31.347Z,17.98
2023-01-03T13:49:21.581Z,18.01
2023-01-03T13:52:03.278Z,17.32
2023-01-03T13:55:00.897Z,17.55
2023-01-03T13:58:14.967Z,16.96
2023-01-03T14:00:48.237Z,17.31
2023-01-03T14:03:45.136Z,17.14
2023-01-03T14:06:19.917Z,17.40
2023-01-03T14:09:00.200Z,17.27
2023-01-03T14:11:30.478Z,16.64
2023-01-03T14:14:14.146Z,17.02
2023-01-03T14:16:53.364Z,16.79
2023-01-03T14:19:35.754Z,16.42
2023-01-03T14:22:28.667Z,16.20
2023-01-03T14:24:59.981Z,15.99
2023-01-03T14:27:39.483Z,15.77
2023-01-03T14:30:28.504Z,15.79
2023-01-03T14:32:56.505Z,15.71
2023-01-03T14:35:42.891Z,15.52
2023-01-03T14:38:22.549Z,14.87
2023-01-03T14:40:55.929Z,14.31
2023-01-03T14:43:33.025Z,13.91
2023-01-03T14:46:10.199Z,13.72
2023-01-03T14:48:39.149Z,13.57
2023-01-03T14:51:10.121Z,13.14
2023-01-03T14:53:43.360Z,12.78
2023-01-03T14:56:11.930Z,12.73
2023-01-03T14:58:52.957Z,12.45
2023-01-03T15:01:24.600Z,12.25
2023-01-03T15:03:54.602Z,12.07
2023-01-03T15:06:25.694Z,11.90
2023-01-03T15:08:58.766Z,11.89
2023-01-03T15:11:56.547Z,11.77
2023-01-03T15:14:28.788Z,11.61
2023-01-03T15:17:11.735Z,11.52
2023-01-03T15:19:48.301Z,11.49
2023-01-03T15:22:23.550Z,11.41
2023-01-03T15:25:37.365Z,11.37
2023-01-03T15:28:24.016Z,11.31
2023-01-03T15:31:02.278Z,11.20
2023-01-03T15:33:35.714Z,11.14
2023-01-03T15:36:18.445Z,11.06
2023-01-03T15:38:48.918Z,11.11
2023-01-03T15:41:47.427Z,11.06
2023-01-03T15:44:23.642Z,10.98
2023-01-03T15:46:57.348Z,10.95
2023-01-03T15:49:27.994Z,10.78
2023-01-03T15:51:57.384Z,10.71
2023-01-03T15:54:26.606Z,10.62
2023-01-03T15:57:05.159Z,10.41
2023-01-03T15:59:43.266Z,10.31
2023-01-03T16:02:19.341Z,10.31
2023-01-03T16:04:49.190Z,10.23
2023-01-03T16:07:20.353Z,10.23
2023-01-03T16:09:49.161Z,10.11
2023-01-03T16:12:28.208Z,10.08
2023-01-03T16:14:55.895Z,9.91
2023-01-03T16:17:31.111Z,9.83
2023-01-03T16:20:07.987Z,9.82
2023-01-03T16:22:59.863Z,9.74
2023-01-03T16:25:32.157Z,9.65
2023-01-03T16:28:08.678Z,9.70
2023-01-03T16:30:45.764Z,9.80
2023-01-03T16:33:26.060Z,9.80
2023-01-03T16:35:56.720Z,9.74
2023-01-03T16:38:32.014Z,9.51
2023-01-03T16:41:01.199Z,9.68
2023-01-03T16:43:29.216Z,9.67
2023-01-03T16:46:00.461Z,9.62
2023-01-03T16:48:42.003Z,9.48
2023-01-03T16:51:19.163Z,9.49
2023-01-03T16:53:52.291Z,9.51
2023-01-03T17:01:08.817Z,9.39
2023-01-03T17:03:42.163Z,9.34
2023-01-03T17:06:38.049Z,9.13
2023-01-03T17:09:20.813Z,8.86
2023-01-03T17:11:48.550Z,8.84
2023-01-03T17:14:22.297Z,8.95
2023-01-03T17:16:51.275Z,9.55
2023-01-03T17:22:23.714Z,9.57
2023-01-03T17:24:52.484Z,9.47
2023-01-03T17:27:31.844Z,9.44
2023-01-03T17:30:08.358Z,9.61
2023-01-03T17:32:35.541Z,9.63
2023-01-03T17:35:05.222Z,9.55
2023-01-03T17:38:05.658Z,9.28
2023-01-03T17:40:34.702Z,9.00
2023-01-03T17:43:07.177Z,9.03
2023-01-03T17:45:59.461Z,8.93
2023-01-03T17:48:52.251Z,8.89
2023-01-03T17:51:21.778Z,8.87
2023-01-03T17:53:54.217Z,9.04
2023-01-03T17:56:29.269Z,8.61
2023-01-03T17:59:05.221Z,8.41
2023-01-03T18:01:52.730Z,8.24
2023-01-03T18:04:50.102Z,8.00
2023-01-03T18:07:23.766Z,8.27
2023-01-03T18:09:57.386Z,7.87
2023-01-03T18:12:32.787Z,7.42
2023-01-03T18:15:06.575Z,7.63
2023-01-03T18:17:38.105Z,7.78
2023-01-03T18:20:08.287Z,7.78
2023-01-03T18:22:36.939Z,7.85
2023-01-03T18:25:04.352Z,7.90
2023-01-03T18:27:32.711Z,7.90
2023-01-03T18:29:59.957Z,8.15
2023-01-03T18:32:30.725Z,8.11
2023-01-03T18:35:00.415Z,7.90
2023-01-03T18:37:34.125Z,7.88
2023-01-03T18:40:04.382Z,7.92
2023-01-03T18:42:55.209Z,7.57
2023-01-03T18:45:25.922Z,6.92
2023-01-03T18:47:55.811Z,6.79
2023-01-03T18:50:26.389Z,6.37
2023-01-03T18:53:13.133Z,6.62
2023-01-03T18:55:41.846Z,6.53
2023-01-03T18:58:43.193Z,6.73
2023-01-03T19:01:16.135Z,7.10
2023-01-03T19:03:52.193Z,7.17
2023-01-03T19:06:44.491Z,7.14
2023-01-03T19:09:58.041Z,7.04
2023-01-03T19:13:04.385Z,6.79
2023-01-03T19:16:01.128Z,6.86
2023-01-03T19:19:00.965Z,6.94
2023-01-03T19:25:31.575Z,6.63
2023-01-03T19:28:06.023Z,6.56
2023-01-03T19:30:40.721Z,6.25
2023-01-03T19:33:14.175Z,6.53
2023-01-03T19:36:19.811Z,6.23
2023-01-03T19:38:56.425Z,6.40
2023-01-03T19:42:23.730Z,6.44
2023-01-03T19:53:10.180Z,6.38
2023-01-03T19:55:48.504Z,6.47
2023-01-03T19:58:31.743Z,6.64
2023-01-03T20:01:58.280Z,6.62
2023-01-03T20:05:26.055Z,6.60
2023-01-03T20:07:57.509Z,6.82
2023-01-03T20:10:33.571Z,6.76
2023-01-03T20:13:10.358Z,6.59
2023-01-03T20:15:44.128Z,6.68
2023-01-03T20:18:37.529Z,6.78
2023-01-03T20:21:22.025Z,6.89
2023-01-03T20:23:57.410Z,6.97
2023-01-03T20:26:28.149Z,6.96
2023-01-03T20:28:58.184Z,6.96
2023-01-03T20:31:26.283Z,7.01
2023-01-03T20:33:53.844Z,6.39
2023-01-03T20:36:26.225Z,5.99
2023-01-03T20:38:56.178Z,6.18
2023-01-03T20:41:40.917Z,5.94
2023-01-03T20:44:11.549Z,6.07
2023-01-03T20:47:12.056Z,6.24
2023-01-03T20:49:42.790Z,6.10
2023-01-03T20:52:16.403Z,6.01
2023-01-03T20:54:44.188Z,6.09
2023-01-03T20:57:16.348Z,6.40
2023-01-03T20:59:45.004Z,6.71
2023-01-03T21:02:13.138Z,6.79
2023-01-03T21:04:50.453Z,6.80
2023-01-03T21:07:50.380Z,6.97
2023-01-03T21:10:27.596Z,7.01
2023-01-03T21:12:55.654Z,6.90
2023-01-03T21:15:23.284Z,7.14
2023-01-03T21:17:51.539Z,7.03
2023-01-03T21:20:25.665Z,7.23
2023-01-03T21:22:53.412Z,7.34
2023-01-03T21:25:30.428Z,7.22
2023-01-03T21:27:59.688Z,7.10
2023-01-03T21:30:29.200Z,6.71
2023-01-03T21:32:56.874Z,6.80
2023-01-03T21:35:24.630Z,6.94
2023-01-03T21:37:53.522Z,7.19
2023-01-03T21:40:25.458Z,7.20
2023-01-03T21:43:04.427Z,7.47
2023-01-03T21:45:44.924Z,7.28
2023-01-03T21:48:28.130Z,7.24
2023-01-03T21:51:11.151Z,7.46
2023-01-03T21:53:43.024Z,7.52
2023-01-03T21:56:32.697Z,7.44
2023-01-03T21:59:01.737Z,7.50
2023-01-03T22:01:49.754Z,7.46
2023-01-03T22:04:17.533Z,7.63
2023-01-03T22:06:45.029Z,7.70
2023-01-03T22:09:32.305Z,7.65
2023-01-03T22:11:59.713Z,7.66
2023-01-03T22:14:26.891Z,7.75
2023-01-03T22:16:57.179Z,7.90
2023-01-03T22:19:24.382Z,7.46
2023-01-03T22:21:51.793Z,7.72
2023-01-03T22:24:19.382Z,7.66
2023-01-03T22:26:46.872Z,7.61
2023-01-03T22:29:14.127Z,7.76
2023-01-03T22:31:47.732Z,7.59
2023-01-03T22:34:14.996Z,7.68
2023-01-03T22:36:43.599Z,7.85
2023-01-03T22:39:12.394Z,7.67
2023-01-03T22:41:39.855Z,7.51
2023-01-03T22:44:07.459Z,7.62
2023-01-03T22:46:35.005Z,7.57
2023-01-03T22:49:02.448Z,7.53
2023-01-03T22:51:30.394Z,7.64
2023-01-03T22:53:57.596Z,7.75
2023-01-03T22:56:26.371Z,7.91
2023-01-03T22:58:54.159Z,7.88
2023-01-03T23:01:28.086Z,8.02
2023-01-03T23:04:01.436Z,7.90
2023-01-03T23:06:31.719Z,7.47
2023-01-03T23:09:01.361Z,7.74
2023-01-03T23:11:50.334Z,7.88
2023-01-03T23:14:20.622Z,7.84
2023-01-03T23:16:56.469Z,8.05
2023-01-03T23:19:26.447Z,8.30
2023-01-03T23:21:56.466Z,8.32
2023-01-03T23:24:25.268Z,8.17
2023-01-03T23:26:53.540Z,8.28
2023-01-03T23:29:21.391Z,8.31
2023-01-03T23:31:48.886Z,8.33
2023-01-03T23:34:16.042Z,7.83
2023-01-03T23:36:43.825Z,7.90
2023-01-03T23:39:16.413Z,7.86
2023-01-03T23:41:44.890Z,7.74
2023-01-03T23:44:14.246Z,7.85
2023-01-03T23:46:41.989Z,7.81
2023-01-03T23:49:12.357Z,8.12
2023-01-03T23:51:39.817Z,7.61
2023-01-03T23:54:07.218Z,7.99
2023-01-03T23:56:34.746Z,8.01
2023-01-03T23:59:02.077Z,8.18
